Meath Environmental Platform

Observations for Trim Market St

Time AQI Temp °C Hum % Pres Pa CO μg/m³ H₂S μg/m³ NO μg/m³ NO₂ μg/m³ O₃ μg/m³ SO₂ μg/m³ PM1 μg/m³ PM2.5 μg/m³ PM10 μg/m³
Monday 13 July 2026
17:32 1 26.7 38 65,416 0 20.69 0 11.87 50.38 0 2.14 5.11 5.62
17:31 1 26.8 38 65,481 0 19.91 0 10.67 46.9 0 1.43 4.05 4.46
17:30 1 27 37 65,531 0 22.63 0 12.35 47.83 0 1.43 4.07 4.47
17:29 1 27.1 37 65,568 0 22.41 0 12.26 49 0 2.14 4.61 5.88
17:28 1 27.2 37 65,605 0 23.88 0 15.26 44.1 0 1.43 4.63 5.09
17:27 1 27.3 36 65,635 0 22.33 0 10.97 51.08 0 0.71 4.64 5.11
17:26 1 27.5 36 65,698 0 20.27 0 9.65 48.73 0 2.14 5.73 6.7
17:24 1 27.8 35 65,750 0 20.53 0 8.14 48.54 0 1.43 5.22 6.69
17:23 1 27.9 35 65,780 0 20.18 0 9.36 49.38 0 0.71 4.7 6.69
17:22 1 28 35 65,789 0 23.17 0 15.36 44.45 0 1.43 4.72 5.02
17:21 1 28.2 34 65,825 0 19.37 0 7.56 49.93 0 2.14 5.81 5.85
17:20 1 28.4 34 65,870 0 17.65 0 7.95 45.76 0 1.43 4.76 5.23
17:17 1 29 33 65,968 0 13.24 0 4.93 47.42 0 2.85 5.36 5.89
17:16 1 29.2 32 65,993 0 9.97 0 3.31 39.8 0 0.71 3.75 4.13
17:15 1 29.4 32 65,995 0 7.55 0 1.38 47.13 0 0.71 4.84 4.97
17:13 1 29.9 32 66,029 0 4.14 0 1.91 38.08 0 2.14 4.86 4.96
17:12 1 30.2 32 66,064 0 5.49 0 0 40.36 0 2.14 5.41 5.95
17:09 1 30.9 31 66,092 0 0.42 0 1.65 41.31 0 1.43 4.91 5.4
17:08 1 31.1 30 66,111 0 2.98 0 0 35.5 0 1.43 4.92 5.41
17:07 1 31.3 30 66,135 0 0 0 0.48 34.05 0 2.14 5.47 6.01